sensor_id;sensor_type;location;lat;lon;timestamp;P1;durP1;ratioP1;P2;durP2;ratioP2
70369;SDS011;57790;51.356;-2.906;2023-11-19T00:01:16;14.87;;;2.23;;
70369;SDS011;57790;51.356;-2.906;2023-11-19T00:04:16;19.40;;;2.23;;
70369;SDS011;57790;51.356;-2.906;2023-11-19T00:07:17;15.05;;;1.92;;
70369;SDS011;57790;51.356;-2.906;2023-11-19T00:10:17;18.47;;;2.33;;
70369;SDS011;57790;51.356;-2.906;2023-11-19T00:13:18;17.75;;;2.13;;
70369;SDS011;57790;51.356;-2.906;2023-11-19T00:16:19;16.50;;;1.90;;
70369;SDS011;57790;51.356;-2.906;2023-11-19T00:19:19;16.37;;;1.83;;
70369;SDS011;57790;51.356;-2.906;2023-11-19T00:22:20;13.83;;;1.80;;
70369;SDS011;57790;51.356;-2.906;2023-11-19T00:25:21;16.50;;;2.08;;
70369;SDS011;57790;51.356;-2.906;2023-11-19T00:28:22;15.17;;;2.00;;
70369;SDS011;57790;51.356;-2.906;2023-11-19T00:31:24;23.02;;;2.10;;
70369;SDS011;57790;51.356;-2.906;2023-11-19T00:34:26;14.77;;;2.10;;
70369;SDS011;57790;51.356;-2.906;2023-11-19T00:37:26;14.23;;;1.77;;
70369;SDS011;57790;51.356;-2.906;2023-11-19T00:40:27;18.17;;;2.10;;
70369;SDS011;57790;51.356;-2.906;2023-11-19T00:43:27;18.93;;;2.73;;
70369;SDS011;57790;51.356;-2.906;2023-11-19T00:46:27;16.70;;;2.77;;
70369;SDS011;57790;51.356;-2.906;2023-11-19T00:49:28;14.17;;;1.87;;
70369;SDS011;57790;51.356;-2.906;2023-11-19T00:52:28;17.13;;;2.33;;
70369;SDS011;57790;51.356;-2.906;2023-11-19T00:55:29;14.03;;;1.83;;
70369;SDS011;57790;51.356;-2.906;2023-11-19T00:58:29;16.80;;;1.87;;
70369;SDS011;57790;51.356;-2.906;2023-11-19T01:01:29;18.40;;;1.90;;
70369;SDS011;57790;51.356;-2.906;2023-11-19T01:04:34;20.80;;;2.55;;
70369;SDS011;57790;51.356;-2.906;2023-11-19T01:07:35;11.87;;;2.37;;
70369;SDS011;57790;51.356;-2.906;2023-11-19T01:10:38;15.63;;;1.90;;
70369;SDS011;57790;51.356;-2.906;2023-11-19T01:13:38;14.10;;;1.80;;
70369;SDS011;57790;51.356;-2.906;2023-11-19T01:16:39;14.20;;;1.77;;
70369;SDS011;57790;51.356;-2.906;2023-11-19T01:19:39;16.37;;;1.83;;
70369;SDS011;57790;51.356;-2.906;2023-11-19T01:22:40;18.23;;;2.22;;
70369;SDS011;57790;51.356;-2.906;2023-11-19T01:25:40;15.47;;;2.13;;
70369;SDS011;57790;51.356;-2.906;2023-11-19T01:28:41;15.47;;;1.63;;
70369;SDS011;57790;51.356;-2.906;2023-11-19T01:31:45;15.13;;;1.90;;
70369;SDS011;57790;51.356;-2.906;2023-11-19T01:34:47;14.95;;;2.35;;
70369;SDS011;57790;51.356;-2.906;2023-11-19T01:37:47;16.83;;;2.10;;
70369;SDS011;57790;51.356;-2.906;2023-11-19T01:40:47;13.63;;;2.33;;
70369;SDS011;57790;51.356;-2.906;2023-11-19T01:43:48;14.10;;;1.90;;
70369;SDS011;57790;51.356;-2.906;2023-11-19T01:46:49;17.40;;;2.10;;
70369;SDS011;57790;51.356;-2.906;2023-11-19T01:49:50;17.83;;;2.00;;
70369;SDS011;57790;51.356;-2.906;2023-11-19T01:52:52;14.80;;;2.00;;
70369;SDS011;57790;51.356;-2.906;2023-11-19T01:55:53;12.57;;;1.65;;
70369;SDS011;57790;51.356;-2.906;2023-11-19T01:58:54;16.80;;;1.80;;
70369;SDS011;57790;51.356;-2.906;2023-11-19T02:01:56;19.35;;;2.40;;
70369;SDS011;57790;51.356;-2.906;2023-11-19T02:04:57;12.85;;;1.80;;
70369;SDS011;57790;51.356;-2.906;2023-11-19T02:07:57;14.50;;;1.87;;
70369;SDS011;57790;51.356;-2.906;2023-11-19T02:10:58;15.43;;;1.73;;
70369;SDS011;57790;51.356;-2.906;2023-11-19T02:14:00;16.60;;;2.33;;
70369;SDS011;57790;51.356;-2.906;2023-11-19T02:17:01;17.53;;;1.83;;
70369;SDS011;57790;51.356;-2.906;2023-11-19T02:20:02;21.58;;;2.00;;
70369;SDS011;57790;51.356;-2.906;2023-11-19T02:23:06;14.40;;;2.08;;
70369;SDS011;57790;51.356;-2.906;2023-11-19T02:26:13;10.40;;;1.40;;
70369;SDS011;57790;51.356;-2.906;2023-11-19T02:29:18;13.23;;;1.58;;
70369;SDS011;57790;51.356;-2.906;2023-11-19T02:32:19;16.43;;;1.70;;
70369;SDS011;57790;51.356;-2.906;2023-11-19T02:35:20;15.40;;;1.77;;
70369;SDS011;57790;51.356;-2.906;2023-11-19T02:38:21;12.00;;;1.55;;
70369;SDS011;57790;51.356;-2.906;2023-11-19T02:41:22;15.13;;;1.57;;
70369;SDS011;57790;51.356;-2.906;2023-11-19T02:44:22;14.23;;;1.73;;
70369;SDS011;57790;51.356;-2.906;2023-11-19T02:47:23;14.75;;;1.95;;
70369;SDS011;57790;51.356;-2.906;2023-11-19T02:50:24;18.50;;;2.47;;
70369;SDS011;57790;51.356;-2.906;2023-11-19T02:53:25;16.95;;;2.33;;
70369;SDS011;57790;51.356;-2.906;2023-11-19T02:56:27;17.10;;;2.10;;
70369;SDS011;57790;51.356;-2.906;2023-11-19T02:59:29;17.73;;;2.03;;
70369;SDS011;57790;51.356;-2.906;2023-11-19T03:02:39;17.23;;;2.15;;
70369;SDS011;57790;51.356;-2.906;2023-11-19T03:05:44;13.20;;;1.83;;
70369;SDS011;57790;51.356;-2.906;2023-11-19T03:08:46;13.63;;;1.50;;
70369;SDS011;57790;51.356;-2.906;2023-11-19T03:11:48;17.35;;;1.90;;
70369;SDS011;57790;51.356;-2.906;2023-11-19T03:14:48;18.13;;;1.90;;
70369;SDS011;57790;51.356;-2.906;2023-11-19T03:17:50;15.50;;;1.80;;
70369;SDS011;57790;51.356;-2.906;2023-11-19T03:20:51;10.87;;;1.50;;
70369;SDS011;57790;51.356;-2.906;2023-11-19T03:23:52;15.60;;;2.30;;
70369;SDS011;57790;51.356;-2.906;2023-11-19T03:26:52;15.77;;;2.37;;
70369;SDS011;57790;51.356;-2.906;2023-11-19T03:29:53;15.03;;;2.10;;
70369;SDS011;57790;51.356;-2.906;2023-11-19T03:32:53;15.40;;;2.33;;
70369;SDS011;57790;51.356;-2.906;2023-11-19T03:35:57;13.13;;;2.20;;
70369;SDS011;57790;51.356;-2.906;2023-11-19T03:38:57;15.50;;;2.20;;
70369;SDS011;57790;51.356;-2.906;2023-11-19T03:41:58;18.77;;;2.50;;
70369;SDS011;57790;51.356;-2.906;2023-11-19T03:44:58;13.83;;;1.83;;
70369;SDS011;57790;51.356;-2.906;2023-11-19T03:47:59;12.32;;;1.52;;
70369;SDS011;57790;51.356;-2.906;2023-11-19T03:51:00;13.53;;;1.80;;
70369;SDS011;57790;51.356;-2.906;2023-11-19T03:54:00;15.87;;;1.80;;
70369;SDS011;57790;51.356;-2.906;2023-11-19T03:57:01;14.13;;;1.92;;
70369;SDS011;57790;51.356;-2.906;2023-11-19T04:00:03;12.73;;;1.50;;
70369;SDS011;57790;51.356;-2.906;2023-11-19T04:03:10;14.95;;;1.55;;
70369;SDS011;57790;51.356;-2.906;2023-11-19T04:06:10;12.57;;;1.47;;
70369;SDS011;57790;51.356;-2.906;2023-11-19T04:09:11;13.73;;;1.55;;
70369;SDS011;57790;51.356;-2.906;2023-11-19T04:12:11;8.87;;;1.23;;
70369;SDS011;57790;51.356;-2.906;2023-11-19T04:15:12;14.20;;;1.20;;
70369;SDS011;57790;51.356;-2.906;2023-11-19T04:18:14;14.13;;;1.95;;
70369;SDS011;57790;51.356;-2.906;2023-11-19T04:21:14;9.03;;;1.20;;
70369;SDS011;57790;51.356;-2.906;2023-11-19T04:24:15;9.23;;;1.50;;
70369;SDS011;57790;51.356;-2.906;2023-11-19T04:27:15;10.45;;;1.25;;
70369;SDS011;57790;51.356;-2.906;2023-11-19T04:30:15;10.97;;;1.70;;
70369;SDS011;57790;51.356;-2.906;2023-11-19T04:33:16;12.63;;;1.60;;
70369;SDS011;57790;51.356;-2.906;2023-11-19T04:36:18;10.37;;;1.27;;
70369;SDS011;57790;51.356;-2.906;2023-11-19T04:39:19;14.55;;;1.50;;
70369;SDS011;57790;51.356;-2.906;2023-11-19T04:42:22;10.50;;;1.30;;
70369;SDS011;57790;51.356;-2.906;2023-11-19T04:45:22;13.88;;;1.77;;
70369;SDS011;57790;51.356;-2.906;2023-11-19T04:48:23;12.40;;;1.47;;
70369;SDS011;57790;51.356;-2.906;2023-11-19T04:51:24;10.50;;;1.17;;
70369;SDS011;57790;51.356;-2.906;2023-11-19T04:54:24;11.70;;;1.27;;
70369;SDS011;57790;51.356;-2.906;2023-11-19T04:57:24;13.03;;;1.87;;
70369;SDS011;57790;51.356;-2.906;2023-11-19T05:00:25;15.40;;;1.70;;
70369;SDS011;57790;51.356;-2.906;2023-11-19T05:03:26;11.43;;;1.30;;
70369;SDS011;57790;51.356;-2.906;2023-11-19T05:06:29;16.00;;;1.33;;
70369;SDS011;57790;51.356;-2.906;2023-11-19T05:09:31;16.95;;;2.10;;
70369;SDS011;57790;51.356;-2.906;2023-11-19T05:12:31;16.77;;;2.03;;
70369;SDS011;57790;51.356;-2.906;2023-11-19T05:15:32;13.07;;;1.67;;
70369;SDS011;57790;51.356;-2.906;2023-11-19T05:18:33;13.77;;;1.40;;
70369;SDS011;57790;51.356;-2.906;2023-11-19T05:21:33;16.03;;;2.20;;
70369;SDS011;57790;51.356;-2.906;2023-11-19T05:24:34;12.55;;;1.42;;
70369;SDS011;57790;51.356;-2.906;2023-11-19T05:27:36;17.08;;;2.30;;
70369;SDS011;57790;51.356;-2.906;2023-11-19T05:30:36;15.37;;;1.90;;
70369;SDS011;57790;51.356;-2.906;2023-11-19T05:33:37;19.03;;;2.00;;
70369;SDS011;57790;51.356;-2.906;2023-11-19T05:36:37;14.82;;;1.70;;
70369;SDS011;57790;51.356;-2.906;2023-11-19T05:39:39;16.43;;;1.73;;
70369;SDS011;57790;51.356;-2.906;2023-11-19T05:42:40;16.27;;;1.90;;
70369;SDS011;57790;51.356;-2.906;2023-11-19T05:45:41;14.70;;;1.88;;
70369;SDS011;57790;51.356;-2.906;2023-11-19T05:48:41;13.17;;;1.90;;
70369;SDS011;57790;51.356;-2.906;2023-11-19T05:51:42;19.70;;;2.47;;
70369;SDS011;57790;51.356;-2.906;2023-11-19T05:54:42;12.27;;;1.70;;
70369;SDS011;57790;51.356;-2.906;2023-11-19T05:57:42;14.73;;;1.90;;
70369;SDS011;57790;51.356;-2.906;2023-11-19T06:00:43;14.82;;;1.80;;
70369;SDS011;57790;51.356;-2.906;2023-11-19T06:03:43;14.10;;;1.80;;
70369;SDS011;57790;51.356;-2.906;2023-11-19T06:06:47;16.37;;;1.90;;
70369;SDS011;57790;51.356;-2.906;2023-11-19T06:09:47;11.07;;;1.50;;
70369;SDS011;57790;51.356;-2.906;2023-11-19T06:12:48;17.10;;;1.40;;
70369;SDS011;57790;51.356;-2.906;2023-11-19T06:15:55;17.63;;;1.85;;
70369;SDS011;57790;51.356;-2.906;2023-11-19T06:18:56;14.57;;;1.47;;
70369;SDS011;57790;51.356;-2.906;2023-11-19T06:21:56;17.77;;;1.53;;
70369;SDS011;57790;51.356;-2.906;2023-11-19T06:24:57;15.37;;;2.33;;
70369;SDS011;57790;51.356;-2.906;2023-11-19T06:27:58;13.70;;;1.52;;
70369;SDS011;57790;51.356;-2.906;2023-11-19T06:30:59;12.83;;;1.33;;
70369;SDS011;57790;51.356;-2.906;2023-11-19T06:33:59;14.13;;;1.60;;
70369;SDS011;57790;51.356;-2.906;2023-11-19T06:36:59;12.02;;;1.45;;
70369;SDS011;57790;51.356;-2.906;2023-11-19T06:40:00;11.27;;;1.50;;
70369;SDS011;57790;51.356;-2.906;2023-11-19T06:43:00;12.47;;;1.53;;
70369;SDS011;57790;51.356;-2.906;2023-11-19T06:46:03;11.80;;;1.42;;
70369;SDS011;57790;51.356;-2.906;2023-11-19T06:49:05;10.00;;;1.48;;
70369;SDS011;57790;51.356;-2.906;2023-11-19T06:52:08;9.73;;;1.30;;
70369;SDS011;57790;51.356;-2.906;2023-11-19T06:55:08;9.93;;;1.23;;
70369;SDS011;57790;51.356;-2.906;2023-11-19T06:58:08;10.87;;;1.40;;
70369;SDS011;57790;51.356;-2.906;2023-11-19T07:01:09;12.87;;;1.63;;
70369;SDS011;57790;51.356;-2.906;2023-11-19T07:04:12;10.80;;;1.07;;
70369;SDS011;57790;51.356;-2.906;2023-11-19T07:07:13;13.55;;;1.20;;
70369;SDS011;57790;51.356;-2.906;2023-11-19T07:10:15;11.10;;;1.30;;
70369;SDS011;57790;51.356;-2.906;2023-11-19T07:13:15;15.53;;;1.83;;
70369;SDS011;57790;51.356;-2.906;2023-11-19T07:16:15;11.43;;;1.43;;
70369;SDS011;57790;51.356;-2.906;2023-11-19T07:19:16;11.53;;;1.00;;
70369;SDS011;57790;51.356;-2.906;2023-11-19T07:22:16;10.83;;;1.43;;
70369;SDS011;57790;51.356;-2.906;2023-11-19T07:25:17;11.48;;;1.35;;
70369;SDS011;57790;51.356;-2.906;2023-11-19T07:28:17;11.17;;;1.00;;
70369;SDS011;57790;51.356;-2.906;2023-11-19T07:31:18;11.53;;;1.17;;
70369;SDS011;57790;51.356;-2.906;2023-11-19T07:34:21;14.15;;;1.85;;
70369;SDS011;57790;51.356;-2.906;2023-11-19T07:37:22;13.70;;;1.27;;
70369;SDS011;57790;51.356;-2.906;2023-11-19T07:40:22;9.88;;;1.45;;
70369;SDS011;57790;51.356;-2.906;2023-11-19T07:43:23;13.50;;;2.10;;
70369;SDS011;57790;51.356;-2.906;2023-11-19T07:46:23;15.83;;;1.80;;
70369;SDS011;57790;51.356;-2.906;2023-11-19T07:49:25;11.20;;;1.40;;
70369;SDS011;57790;51.356;-2.906;2023-11-19T07:52:25;12.67;;;2.00;;
70369;SDS011;57790;51.356;-2.906;2023-11-19T07:55:25;14.10;;;1.85;;
70369;SDS011;57790;51.356;-2.906;2023-11-19T07:58:27;16.60;;;1.70;;
70369;SDS011;57790;51.356;-2.906;2023-11-19T08:01:28;10.65;;;1.48;;
70369;SDS011;57790;51.356;-2.906;2023-11-19T08:04:28;17.13;;;2.10;;
70369;SDS011;57790;51.356;-2.906;2023-11-19T08:07:29;13.40;;;1.73;;
70369;SDS011;57790;51.356;-2.906;2023-11-19T08:10:29;14.37;;;1.67;;
70369;SDS011;57790;51.356;-2.906;2023-11-19T08:13:30;12.93;;;1.83;;
70369;SDS011;57790;51.356;-2.906;2023-11-19T08:16:31;17.35;;;1.95;;
70369;SDS011;57790;51.356;-2.906;2023-11-19T08:19:31;13.00;;;1.40;;
70369;SDS011;57790;51.356;-2.906;2023-11-19T08:22:31;13.60;;;1.93;;
70369;SDS011;57790;51.356;-2.906;2023-11-19T08:25:32;10.77;;;1.37;;
70369;SDS011;57790;51.356;-2.906;2023-11-19T08:28:33;13.43;;;1.47;;
70369;SDS011;57790;51.356;-2.906;2023-11-19T08:31:34;12.95;;;1.48;;
70369;SDS011;57790;51.356;-2.906;2023-11-19T08:34:35;14.32;;;1.80;;
70369;SDS011;57790;51.356;-2.906;2023-11-19T08:37:35;14.53;;;1.43;;
70369;SDS011;57790;51.356;-2.906;2023-11-19T08:40:37;15.27;;;2.28;;
70369;SDS011;57790;51.356;-2.906;2023-11-19T08:43:38;13.40;;;1.50;;
70369;SDS011;57790;51.356;-2.906;2023-11-19T08:46:46;13.50;;;1.77;;
70369;SDS011;57790;51.356;-2.906;2023-11-19T08:49:52;14.07;;;2.13;;
70369;SDS011;57790;51.356;-2.906;2023-11-19T08:52:53;11.45;;;1.70;;
70369;SDS011;57790;51.356;-2.906;2023-11-19T08:55:54;11.93;;;1.60;;
70369;SDS011;57790;51.356;-2.906;2023-11-19T08:58:54;15.47;;;1.43;;
70369;SDS011;57790;51.356;-2.906;2023-11-19T09:01:54;11.50;;;1.77;;
70369;SDS011;57790;51.356;-2.906;2023-11-19T09:04:55;10.90;;;1.35;;
70369;SDS011;57790;51.356;-2.906;2023-11-19T09:07:55;11.90;;;1.70;;
70369;SDS011;57790;51.356;-2.906;2023-11-19T09:10:56;16.03;;;1.70;;
70369;SDS011;57790;51.356;-2.906;2023-11-19T09:13:56;11.30;;;1.43;;
70369;SDS011;57790;51.356;-2.906;2023-11-19T09:16:56;14.90;;;1.60;;
70369;SDS011;57790;51.356;-2.906;2023-11-19T09:19:58;10.82;;;2.28;;
70369;SDS011;57790;51.356;-2.906;2023-11-19T09:22:58;13.47;;;1.50;;
70369;SDS011;57790;51.356;-2.906;2023-11-19T09:25:58;9.03;;;1.13;;
70369;SDS011;57790;51.356;-2.906;2023-11-19T09:29:00;10.95;;;1.65;;
70369;SDS011;57790;51.356;-2.906;2023-11-19T09:32:00;11.57;;;1.20;;
70369;SDS011;57790;51.356;-2.906;2023-11-19T09:35:01;12.30;;;1.47;;
70369;SDS011;57790;51.356;-2.906;2023-11-19T09:38:02;14.02;;;1.63;;
70369;SDS011;57790;51.356;-2.906;2023-11-19T09:41:05;12.23;;;1.37;;
70369;SDS011;57790;51.356;-2.906;2023-11-19T09:44:09;10.67;;;1.23;;
70369;SDS011;57790;51.356;-2.906;2023-11-19T09:47:11;11.68;;;1.70;;
70369;SDS011;57790;51.356;-2.906;2023-11-19T09:50:15;11.82;;;1.25;;
70369;SDS011;57790;51.356;-2.906;2023-11-19T09:53:18;9.40;;;1.23;;
70369;SDS011;57790;51.356;-2.906;2023-11-19T09:56:20;12.00;;;1.40;;
70369;SDS011;57790;51.356;-2.906;2023-11-19T09:59:22;12.67;;;1.10;;
70369;SDS011;57790;51.356;-2.906;2023-11-19T10:02:22;11.33;;;1.63;;
70369;SDS011;57790;51.356;-2.906;2023-11-19T10:05:23;8.80;;;1.20;;
70369;SDS011;57790;51.356;-2.906;2023-11-19T10:08:24;11.55;;;1.63;;
70369;SDS011;57790;51.356;-2.906;2023-11-19T10:11:25;8.70;;;1.50;;
70369;SDS011;57790;51.356;-2.906;2023-11-19T10:14:25;8.23;;;1.30;;
70369;SDS011;57790;51.356;-2.906;2023-11-19T10:17:28;11.87;;;1.50;;
70369;SDS011;57790;51.356;-2.906;2023-11-19T10:20:35;11.68;;;1.35;;
70369;SDS011;57790;51.356;-2.906;2023-11-19T10:26:56;10.07;;;1.10;;
70369;SDS011;57790;51.356;-2.906;2023-11-19T10:29:59;13.30;;;1.75;;
70369;SDS011;57790;51.356;-2.906;2023-11-19T10:33:06;10.97;;;1.10;;
70369;SDS011;57790;51.356;-2.906;2023-11-19T10:36:08;8.15;;;0.95;;
70369;SDS011;57790;51.356;-2.906;2023-11-19T10:39:09;9.70;;;0.90;;
70369;SDS011;57790;51.356;-2.906;2023-11-19T10:42:16;10.83;;;1.13;;
70369;SDS011;57790;51.356;-2.906;2023-11-19T10:45:22;8.35;;;0.77;;
70369;SDS011;57790;51.356;-2.906;2023-11-19T10:48:26;6.60;;;1.08;;
70369;SDS011;57790;51.356;-2.906;2023-11-19T10:51:27;8.20;;;1.07;;
70369;SDS011;57790;51.356;-2.906;2023-11-19T10:54:29;8.90;;;1.08;;
70369;SDS011;57790;51.356;-2.906;2023-11-19T10:57:30;5.15;;;0.77;;
70369;SDS011;57790;51.356;-2.906;2023-11-19T11:00:38;9.63;;;1.10;;
70369;SDS011;57790;51.356;-2.906;2023-11-19T11:03:43;6.28;;;1.05;;
70369;SDS011;57790;51.356;-2.906;2023-11-19T11:06:45;9.68;;;1.20;;
70369;SDS011;57790;51.356;-2.906;2023-11-19T11:09:47;9.82;;;1.02;;
70369;SDS011;57790;51.356;-2.906;2023-11-19T11:12:49;9.10;;;0.90;;
70369;SDS011;57790;51.356;-2.906;2023-11-19T11:15:53;9.30;;;1.00;;
70369;SDS011;57790;51.356;-2.906;2023-11-19T11:18:57;8.27;;;1.10;;
70369;SDS011;57790;51.356;-2.906;2023-11-19T11:21:58;8.68;;;1.10;;
70369;SDS011;57790;51.356;-2.906;2023-11-19T11:28:26;7.90;;;0.90;;
70369;SDS011;57790;51.356;-2.906;2023-11-19T11:38:22;6.00;;;0.88;;
70369;SDS011;57790;51.356;-2.906;2023-11-19T11:41:24;8.25;;;0.80;;
70369;SDS011;57790;51.356;-2.906;2023-11-19T11:45:11;6.25;;;0.90;;
70369;SDS011;57790;51.356;-2.906;2023-11-19T11:51:08;5.93;;;0.65;;
70369;SDS011;57790;51.356;-2.906;2023-11-19T11:54:09;9.10;;;1.13;;
70369;SDS011;57790;51.356;-2.906;2023-11-19T12:00:11;6.95;;;0.90;;
70369;SDS011;57790;51.356;-2.906;2023-11-19T12:03:22;7.22;;;0.60;;
70369;SDS011;57790;51.356;-2.906;2023-11-19T12:06:23;4.67;;;1.00;;
70369;SDS011;57790;51.356;-2.906;2023-11-19T12:09:24;7.75;;;0.80;;
70369;SDS011;57790;51.356;-2.906;2023-11-19T12:12:26;6.75;;;0.60;;
70369;SDS011;57790;51.356;-2.906;2023-11-19T12:15:33;6.93;;;0.80;;
70369;SDS011;57790;51.356;-2.906;2023-11-19T12:18:33;7.35;;;0.75;;
70369;SDS011;57790;51.356;-2.906;2023-11-19T12:21:33;6.47;;;0.60;;
70369;SDS011;57790;51.356;-2.906;2023-11-19T12:24:37;8.85;;;0.88;;
70369;SDS011;57790;51.356;-2.906;2023-11-19T12:27:41;5.47;;;0.70;;
70369;SDS011;57790;51.356;-2.906;2023-11-19T12:30:51;8.63;;;1.00;;
70369;SDS011;57790;51.356;-2.906;2023-11-19T12:33:52;5.13;;;0.70;;
70369;SDS011;57790;51.356;-2.906;2023-11-19T12:36:53;10.30;;;1.20;;
70369;SDS011;57790;51.356;-2.906;2023-11-19T12:39:53;7.83;;;1.07;;
70369;SDS011;57790;51.356;-2.906;2023-11-19T12:42:54;8.57;;;1.00;;
70369;SDS011;57790;51.356;-2.906;2023-11-19T12:45:55;10.37;;;0.90;;
70369;SDS011;57790;51.356;-2.906;2023-11-19T12:48:55;8.20;;;1.10;;
70369;SDS011;57790;51.356;-2.906;2023-11-19T12:51:56;10.10;;;0.90;;
70369;SDS011;57790;51.356;-2.906;2023-11-19T12:54:56;10.30;;;1.20;;
70369;SDS011;57790;51.356;-2.906;2023-11-19T12:57:58;9.68;;;0.90;;
70369;SDS011;57790;51.356;-2.906;2023-11-19T13:00:59;10.25;;;1.13;;
70369;SDS011;57790;51.356;-2.906;2023-11-19T13:04:19;8.80;;;1.03;;
70369;SDS011;57790;51.356;-2.906;2023-11-19T13:07:22;10.57;;;1.10;;
70369;SDS011;57790;51.356;-2.906;2023-11-19T13:10:23;11.05;;;1.10;;
70369;SDS011;57790;51.356;-2.906;2023-11-19T13:13:23;12.77;;;1.30;;
70369;SDS011;57790;51.356;-2.906;2023-11-19T13:16:24;12.97;;;1.20;;
70369;SDS011;57790;51.356;-2.906;2023-11-19T13:19:25;8.35;;;1.10;;
70369;SDS011;57790;51.356;-2.906;2023-11-19T13:22:26;13.73;;;1.40;;
70369;SDS011;57790;51.356;-2.906;2023-11-19T13:25:26;10.17;;;1.20;;
70369;SDS011;57790;51.356;-2.906;2023-11-19T13:28:28;10.50;;;1.50;;
70369;SDS011;57790;51.356;-2.906;2023-11-19T13:31:28;10.63;;;1.42;;
70369;SDS011;57790;51.356;-2.906;2023-11-19T13:34:29;11.13;;;1.50;;
70369;SDS011;57790;51.356;-2.906;2023-11-19T13:37:29;9.10;;;1.10;;
70369;SDS011;57790;51.356;-2.906;2023-11-19T13:40:30;10.85;;;1.48;;
70369;SDS011;57790;51.356;-2.906;2023-11-19T13:43:30;12.97;;;1.10;;
70369;SDS011;57790;51.356;-2.906;2023-11-19T13:46:31;15.07;;;1.77;;
70369;SDS011;57790;51.356;-2.906;2023-11-19T13:49:32;9.53;;;1.33;;
70369;SDS011;57790;51.356;-2.906;2023-11-19T13:52:33;9.77;;;1.48;;
70369;SDS011;57790;51.356;-2.906;2023-11-19T13:55:33;12.53;;;1.50;;
70369;SDS011;57790;51.356;-2.906;2023-11-19T13:58:34;10.53;;;1.33;;
70369;SDS011;57790;51.356;-2.906;2023-11-19T14:01:35;12.45;;;1.30;;
70369;SDS011;57790;51.356;-2.906;2023-11-19T14:04:35;11.53;;;1.10;;
70369;SDS011;57790;51.356;-2.906;2023-11-19T14:07:36;10.80;;;1.07;;
70369;SDS011;57790;51.356;-2.906;2023-11-19T14:10:39;11.15;;;1.30;;
70369;SDS011;57790;51.356;-2.906;2023-11-19T14:13:40;10.17;;;1.10;;
70369;SDS011;57790;51.356;-2.906;2023-11-19T14:16:40;10.57;;;1.10;;
70369;SDS011;57790;51.356;-2.906;2023-11-19T14:19:41;10.00;;;1.17;;
70369;SDS011;57790;51.356;-2.906;2023-11-19T14:22:43;11.38;;;1.67;;
70369;SDS011;57790;51.356;-2.906;2023-11-19T14:25:44;11.30;;;1.30;;
70369;SDS011;57790;51.356;-2.906;2023-11-19T14:28:44;12.85;;;1.58;;
70369;SDS011;57790;51.356;-2.906;2023-11-19T14:31:44;11.17;;;1.43;;
70369;SDS011;57790;51.356;-2.906;2023-11-19T14:34:45;12.97;;;1.70;;
70369;SDS011;57790;51.356;-2.906;2023-11-19T14:37:45;9.93;;;1.23;;
70369;SDS011;57790;51.356;-2.906;2023-11-19T14:40:46;17.30;;;1.90;;
70369;SDS011;57790;51.356;-2.906;2023-11-19T14:43:48;15.70;;;1.83;;
70369;SDS011;57790;51.356;-2.906;2023-11-19T14:46:48;15.10;;;2.07;;
70369;SDS011;57790;51.356;-2.906;2023-11-19T14:49:48;12.67;;;1.23;;
70369;SDS011;57790;51.356;-2.906;2023-11-19T14:52:50;12.85;;;1.75;;
70369;SDS011;57790;51.356;-2.906;2023-11-19T14:55:51;13.00;;;1.37;;
70369;SDS011;57790;51.356;-2.906;2023-11-19T14:58:51;13.13;;;1.53;;
70369;SDS011;57790;51.356;-2.906;2023-11-19T15:01:51;12.93;;;1.50;;
70369;SDS011;57790;51.356;-2.906;2023-11-19T15:04:52;13.73;;;1.87;;
70369;SDS011;57790;51.356;-2.906;2023-11-19T15:07:52;15.23;;;1.80;;
70369;SDS011;57790;51.356;-2.906;2023-11-19T15:10:53;13.47;;;1.50;;
70369;SDS011;57790;51.356;-2.906;2023-11-19T15:13:53;9.60;;;1.50;;
70369;SDS011;57790;51.356;-2.906;2023-11-19T15:16:54;12.30;;;1.75;;
70369;SDS011;57790;51.356;-2.906;2023-11-19T15:19:54;13.83;;;1.70;;
70369;SDS011;57790;51.356;-2.906;2023-11-19T15:22:57;13.77;;;1.60;;
70369;SDS011;57790;51.356;-2.906;2023-11-19T15:25:58;14.80;;;1.70;;
70369;SDS011;57790;51.356;-2.906;2023-11-19T15:28:58;11.40;;;1.27;;
70369;SDS011;57790;51.356;-2.906;2023-11-19T15:31:59;13.47;;;1.83;;
70369;SDS011;57790;51.356;-2.906;2023-11-19T15:34:59;11.70;;;1.70;;
70369;SDS011;57790;51.356;-2.906;2023-11-19T15:37:59;15.57;;;2.07;;
70369;SDS011;57790;51.356;-2.906;2023-11-19T15:41:00;13.03;;;1.23;;
70369;SDS011;57790;51.356;-2.906;2023-11-19T15:44:00;11.57;;;1.50;;
70369;SDS011;57790;51.356;-2.906;2023-11-19T15:47:03;9.20;;;1.23;;
70369;SDS011;57790;51.356;-2.906;2023-11-19T15:50:04;13.02;;;1.52;;
70369;SDS011;57790;51.356;-2.906;2023-11-19T15:53:05;14.30;;;1.80;;
70369;SDS011;57790;51.356;-2.906;2023-11-19T15:56:06;17.53;;;1.93;;
70369;SDS011;57790;51.356;-2.906;2023-11-19T15:59:06;14.97;;;1.57;;
70369;SDS011;57790;51.356;-2.906;2023-11-19T16:02:08;11.90;;;1.38;;
70369;SDS011;57790;51.356;-2.906;2023-11-19T16:05:08;14.47;;;1.73;;
70369;SDS011;57790;51.356;-2.906;2023-11-19T16:08:09;13.02;;;1.45;;
70369;SDS011;57790;51.356;-2.906;2023-11-19T16:11:10;10.77;;;1.67;;
70369;SDS011;57790;51.356;-2.906;2023-11-19T16:14:13;12.88;;;1.83;;
70369;SDS011;57790;51.356;-2.906;2023-11-19T16:17:14;15.53;;;2.03;;
70369;SDS011;57790;51.356;-2.906;2023-11-19T16:20:15;17.30;;;1.93;;
70369;SDS011;57790;51.356;-2.906;2023-11-19T16:23:15;15.53;;;1.83;;
70369;SDS011;57790;51.356;-2.906;2023-11-19T16:26:17;15.85;;;1.65;;
70369;SDS011;57790;51.356;-2.906;2023-11-19T16:29:17;12.93;;;2.30;;
70369;SDS011;57790;51.356;-2.906;2023-11-19T16:32:18;14.47;;;1.80;;
70369;SDS011;57790;51.356;-2.906;2023-11-19T16:35:18;11.90;;;1.40;;
70369;SDS011;57790;51.356;-2.906;2023-11-19T16:38:19;13.23;;;1.90;;
70369;SDS011;57790;51.356;-2.906;2023-11-19T16:41:19;14.70;;;1.90;;
70369;SDS011;57790;51.356;-2.906;2023-11-19T16:44:22;11.60;;;1.75;;
70369;SDS011;57790;51.356;-2.906;2023-11-19T16:47:22;12.20;;;1.63;;
70369;SDS011;57790;51.356;-2.906;2023-11-19T16:50:23;10.87;;;1.30;;
70369;SDS011;57790;51.356;-2.906;2023-11-19T16:53:23;17.17;;;2.03;;
70369;SDS011;57790;51.356;-2.906;2023-11-19T16:56:24;14.97;;;1.83;;
70369;SDS011;57790;51.356;-2.906;2023-11-19T16:59:24;14.20;;;2.20;;
70369;SDS011;57790;51.356;-2.906;2023-11-19T17:02:24;14.20;;;2.03;;
70369;SDS011;57790;51.356;-2.906;2023-11-19T17:05:25;14.40;;;1.53;;
70369;SDS011;57790;51.356;-2.906;2023-11-19T17:08:25;16.30;;;2.30;;
70369;SDS011;57790;51.356;-2.906;2023-11-19T17:11:26;17.00;;;2.17;;
70369;SDS011;57790;51.356;-2.906;2023-11-19T17:14:26;14.32;;;1.90;;
70369;SDS011;57790;51.356;-2.906;2023-11-19T17:17:27;12.57;;;1.80;;
70369;SDS011;57790;51.356;-2.906;2023-11-19T17:20:33;15.10;;;2.30;;
70369;SDS011;57790;51.356;-2.906;2023-11-19T17:23:37;16.33;;;2.40;;
70369;SDS011;57790;51.356;-2.906;2023-11-19T17:26:39;16.43;;;2.13;;
70369;SDS011;57790;51.356;-2.906;2023-11-19T17:29:39;17.63;;;2.00;;
70369;SDS011;57790;51.356;-2.906;2023-11-19T17:32:39;16.47;;;2.27;;
70369;SDS011;57790;51.356;-2.906;2023-11-19T17:35:40;15.13;;;2.10;;
70369;SDS011;57790;51.356;-2.906;2023-11-19T17:38:40;16.57;;;2.07;;
70369;SDS011;57790;51.356;-2.906;2023-11-19T17:41:41;14.10;;;2.03;;
70369;SDS011;57790;51.356;-2.906;2023-11-19T17:44:41;15.50;;;2.17;;
70369;SDS011;57790;51.356;-2.906;2023-11-19T17:47:42;17.90;;;2.40;;
70369;SDS011;57790;51.356;-2.906;2023-11-19T17:50:42;15.30;;;2.30;;
70369;SDS011;57790;51.356;-2.906;2023-11-19T17:53:43;15.23;;;1.58;;
70369;SDS011;57790;51.356;-2.906;2023-11-19T17:56:43;14.70;;;1.93;;
70369;SDS011;57790;51.356;-2.906;2023-11-19T17:59:44;11.00;;;1.70;;
70369;SDS011;57790;51.356;-2.906;2023-11-19T18:02:46;11.07;;;1.83;;